Time;durP1;ratioP1;P1;durP2;ratioP2;P2;SDS_P1;SDS_P2;PMS_P1;PMS_P2;Temp;Humidity;BMP_temperature;BMP_pressure;BME280_temperature;BME280_humidity;BME280_pressure;Samples;Min_cycle;Max_cycle;Signal;HPM_P1;HPM_P2
2023/10/12 00:00:24;;;;;;;8.13;3.40;;;16.60;96.20;;;;;;6232100;28;20041;-76
2023/10/12 00:03:25;;;;;;;6.28;4.10;;;16.50;96.30;;;;;;6244500;28;20041;-77
2023/10/12 00:06:30;;;;;;;8.98;4.43;;;16.40;96.80;;;;;;6228736;28;20446;-77
2023/10/12 00:09:31;;;;;;;10.68;3.28;;;16.20;96.70;;;;;;6220833;28;20081;-78
2023/10/12 00:12:35;;;;;;;9.63;3.15;;;16.10;96.90;;;;;;6219678;28;20034;-77
2023/10/12 00:15:45;;;;;;;4.50;2.90;;;16.00;97.10;;;;;;6219484;28;20177;-77
2023/10/12 00:18:49;;;;;;;5.63;3.13;;;15.90;97.40;;;;;;6219751;28;20141;-77
2023/10/12 00:21:56;;;;;;;5.90;3.60;;;15.80;97.60;;;;;;6220924;28;20082;-76
2023/10/12 00:24:58;;;;;;;11.63;5.30;;;15.70;97.80;;;;;;6220458;28;20099;-77
2023/10/12 00:27:59;;;;;;;7.43;3.88;;;15.60;98.00;;;;;;6219409;28;20046;-77
2023/10/12 00:31:12;;;;;;;8.07;3.60;;;15.40;98.30;;;;;;6219744;28;20038;-77
2023/10/12 00:34:14;;;;;;;7.30;3.30;;;15.40;98.60;;;;;;6223731;28;20049;-77
2023/10/12 00:37:16;;;;;;;9.15;3.42;;;15.20;98.80;;;;;;6224351;28;20045;-77
2023/10/12 00:40:26;;;;;;;6.15;3.47;;;15.10;99.00;;;;;;6227549;28;20057;-77
2023/10/12 00:43:36;;;;;;;6.43;3.50;;;15.00;99.30;;;;;;6231209;28;20042;-77
2023/10/12 00:46:48;;;;;;;5.15;4.10;;;14.90;99.60;;;;;;6223637;28;20042;-77
2023/10/12 00:49:50;;;;;;;8.35;3.58;;;14.90;99.90;;;;;;6239480;28;20053;-77
2023/10/12 00:52:55;;;;;;;8.73;3.53;;;14.80;99.90;;;;;;6238412;28;20046;-77
2023/10/12 00:55:57;;;;;;;6.05;3.70;;;14.70;99.90;;;;;;6226554;28;20187;-77
2023/10/12 00:58:59;;;;;;;6.75;3.92;;;14.70;99.90;;;;;;6236013;28;20053;-77
2023/10/12 01:02:08;;;;;;;8.60;4.28;;;14.70;99.90;;;;;;6235078;28;20045;-78
2023/10/12 01:05:11;;;;;;;5.93;3.53;;;14.60;99.90;;;;;;6243589;28;20175;-77
2023/10/12 01:08:18;;;;;;;7.07;3.88;;;14.70;99.90;;;;;;6236243;28;20045;-77
2023/10/12 01:11:23;;;;;;;5.13;2.83;;;14.70;99.90;;;;;;6239472;28;20187;-76
2023/10/12 01:14:27;;;;;;;5.65;3.50;;;14.70;99.90;;;;;;6232935;28;20285;-77
2023/10/12 01:17:34;;;;;;;8.45;3.08;;;14.80;99.90;;;;;;6246499;28;20059;-76
2023/10/12 01:20:39;;;;;;;10.60;3.95;;;14.80;99.90;;;;;;6247378;28;20505;-77
2023/10/12 01:23:47;;;;;;;8.85;4.38;;;14.90;99.90;;;;;;6238940;28;20341;-77
2023/10/12 01:26:49;;;;;;;4.88;2.88;;;15.10;99.90;;;;;;6222716;28;20046;-76
2023/10/12 01:29:51;;;;;;;5.70;3.65;;;15.30;99.90;;;;;;6222647;28;20049;-77
2023/10/12 01:32:54;;;;;;;6.28;3.60;;;15.40;99.90;;;;;;6223082;28;20411;-77
2023/10/12 01:35:56;;;;;;;4.75;3.10;;;15.60;99.90;;;;;;6222501;28;20061;-77
2023/10/12 01:39:12;;;;;;;6.47;3.28;;;15.70;99.90;;;;;;6222420;28;20141;-77
2023/10/12 01:42:20;;;;;;;7.82;3.45;;;15.80;99.90;;;;;;6222537;28;20430;-77
2023/10/12 01:45:33;;;;;;;7.25;3.05;;;16.00;99.90;;;;;;6223242;28;20088;-77
2023/10/12 01:48:34;;;;;;;5.38;4.10;;;16.00;99.90;;;;;;6222240;28;20148;-77
2023/10/12 01:51:41;;;;;;;10.45;3.00;;;16.20;99.90;;;;;;6222342;28;20069;-77
2023/10/12 01:54:48;;;;;;;8.27;4.05;;;16.30;99.90;;;;;;6222125;28;20091;-77
2023/10/12 01:57:54;;;;;;;5.38;3.40;;;16.40;99.90;;;;;;6221648;28;20054;-77
2023/10/12 02:00:55;;;;;;;7.90;4.50;;;16.50;99.90;;;;;;6224922;28;20478;-77
2023/10/12 02:03:57;;;;;;;8.32;3.83;;;16.50;99.90;;;;;;6227710;28;20045;-77
2023/10/12 02:07:02;;;;;;;7.88;3.15;;;16.50;99.90;;;;;;6222045;28;20057;-77
2023/10/12 02:10:11;;;;;;;9.45;3.83;;;16.60;99.90;;;;;;6221822;28;20057;-77
2023/10/12 02:13:12;;;;;;;4.88;3.10;;;16.60;99.90;;;;;;6222392;28;20038;-77
2023/10/12 02:16:24;;;;;;;5.18;3.50;;;16.60;99.80;;;;;;6221088;28;20521;-77
2023/10/12 02:19:38;;;;;;;7.43;2.90;;;16.50;99.90;;;;;;6229837;28;20049;-77
2023/10/12 02:22:39;;;;;;;12.63;4.82;;;16.50;99.80;;;;;;6221886;28;20474;-77
2023/10/12 02:25:50;;;;;;;6.00;3.95;;;16.50;99.70;;;;;;6229843;28;20053;-77
2023/10/12 02:28:53;;;;;;;7.70;4.22;;;16.50;99.60;;;;;;6241079;28;20136;-77
2023/10/12 02:31:58;;;;;;;4.30;3.90;;;16.50;99.60;;;;;;6246016;28;20046;-77
2023/10/12 02:35:04;;;;;;;5.35;3.80;;;16.60;99.50;;;;;;6245763;28;20045;-77
2023/10/12 02:38:07;;;;;;;6.35;2.70;;;16.60;99.70;;;;;;6245687;28;20041;-77
2023/10/12 02:41:12;;;;;;;4.25;3.15;;;16.60;99.30;;;;;;6231146;28;20400;-77
2023/10/12 02:44:14;;;;;;;11.52;3.20;;;16.60;99.30;;;;;;6221283;28;20048;-77
2023/10/12 02:47:18;;;;;;;4.78;2.90;;;16.60;99.20;;;;;;6221099;28;20116;-77
2023/10/12 02:50:29;;;;;;;5.97;4.03;;;16.60;99.10;;;;;;6221304;28;20038;-77
2023/10/12 02:53:30;;;;;;;6.53;3.95;;;16.70;99.00;;;;;;6227858;28;20048;-77
2023/10/12 02:56:35;;;;;;;5.15;3.25;;;16.70;99.00;;;;;;6221349;28;20093;-77
2023/10/12 02:59:38;;;;;;;7.22;3.70;;;16.70;98.90;;;;;;6221230;28;20050;-78
2023/10/12 03:02:42;;;;;;;8.43;3.05;;;16.70;98.90;;;;;;6220866;28;20572;-77
2023/10/12 03:05:47;;;;;;;8.73;2.95;;;16.80;98.80;;;;;;6220728;28;20103;-77
2023/10/12 03:09:03;;;;;;;9.98;3.38;;;16.70;98.60;;;;;;6221217;28;20514;-77
2023/10/12 03:12:07;;;;;;;4.75;3.45;;;16.70;98.60;;;;;;6220268;28;20038;-78
2023/10/12 03:15:12;;;;;;;4.97;3.55;;;16.70;98.50;;;;;;6220556;28;20514;-76
2023/10/12 03:18:14;;;;;;;9.55;3.65;;;16.70;98.50;;;;;;6220454;28;20077;-77
2023/10/12 03:21:17;;;;;;;5.90;3.58;;;16.60;98.50;;;;;;6221324;28;20060;-77
2023/10/12 03:24:22;;;;;;;8.95;4.65;;;16.60;98.50;;;;;;6223158;28;20050;-77
2023/10/12 03:27:25;;;;;;;8.73;3.22;;;16.50;98.60;;;;;;6244624;28;20041;-77
2023/10/12 03:30:34;;;;;;;5.55;3.97;;;16.50;98.60;;;;;;6244964;28;20045;-77
2023/10/12 03:33:36;;;;;;;6.03;3.33;;;16.50;98.60;;;;;;6245240;28;20524;-77
2023/10/12 03:36:38;;;;;;;4.05;2.67;;;16.40;98.60;;;;;;6221024;28;20057;-77
2023/10/12 03:39:58;;;;;;;7.63;3.42;;;16.40;98.70;;;;;;6228614;28;20052;-77
2023/10/12 03:43:11;;;;;;;3.65;2.50;;;16.40;98.70;;;;;;6220467;28;20042;-77
2023/10/12 03:46:18;;;;;;;3.45;2.70;;;16.50;98.60;;;;;;6219992;28;20050;-77
2023/10/12 03:49:31;;;;;;;9.93;4.18;;;16.50;98.40;;;;;;6220528;28;20510;-77
2023/10/12 03:52:39;;;;;;;7.65;3.78;;;16.50;98.40;;;;;;6220384;28;20072;-76
2023/10/12 03:55:43;;;;;;;4.55;3.22;;;16.50;98.50;;;;;;6220262;28;20041;-77
2023/10/12 03:58:58;;;;;;;16.60;3.22;;;16.50;98.50;;;;;;6220106;28;20056;-77
2023/10/12 04:02:00;;;;;;;5.18;2.90;;;16.50;98.50;;;;;;6220279;28;20133;-77
2023/10/12 04:05:15;;;;;;;5.35;3.75;;;16.50;98.50;;;;;;6220259;28;20053;-77
2023/10/12 04:14:55;;;;;;;6.50;3.70;;;16.30;98.60;;;;;;6241660;28;19929;-77
2023/10/12 04:17:59;;;;;;;6.22;3.80;;;16.30;98.60;;;;;;6248721;28;20499;-76
2023/10/12 04:21:03;;;;;;;7.25;3.15;;;16.20;98.80;;;;;;6239517;28;20046;-77
2023/10/12 04:27:38;;;;;;;9.02;4.38;;;16.10;99.10;;;;;;6232348;28;20121;-77
2023/10/12 04:31:20;;;;;;;7.00;4.00;;;16.10;99.20;;;;;;6224322;28;20053;-77
2023/10/12 04:34:06;;;;;;;6.15;3.70;;;16.10;99.40;;;;;;6227046;28;20050;-77
2023/10/12 04:37:09;;;;;;;5.88;5.28;;;16.10;99.40;;;;;;6227167;28;20042;-78
2023/10/12 04:40:32;;;;;;;4.00;2.88;;;16.20;99.60;;;;;;6238754;28;20048;-77
2023/10/12 04:43:34;;;;;;;5.90;3.63;;;16.20;99.60;;;;;;6248448;28;20131;-77
2023/10/12 04:46:47;;;;;;;8.30;3.35;;;16.30;99.50;;;;;;6248268;28;20053;-78
2023/10/12 04:49:55;;;;;;;7.45;3.38;;;16.30;99.60;;;;;;6248162;28;20547;-78
2023/10/12 04:53:08;;;;;;;6.43;3.47;;;16.20;99.60;;;;;;6248956;28;20045;-77
2023/10/12 04:56:10;;;;;;;8.20;4.10;;;16.20;99.70;;;;;;6248636;28;20046;-78
2023/10/12 04:59:15;;;;;;;7.22;4.20;;;16.20;99.80;;;;;;6269391;23;20099;-77
2023/10/12 05:02:28;;;;;;;10.30;4.10;;;16.20;99.80;;;;;;6248577;28;20505;-77
2023/10/12 05:05:56;;;;;;;6.90;4.05;;;16.20;99.90;;;;;;6249639;28;20452;-77
2023/10/12 05:08:57;;;;;;;9.50;4.72;;;16.20;99.90;;;;;;6249857;28;20146;-77
2023/10/12 05:11:59;;;;;;;8.13;3.13;;;16.20;99.90;;;;;;6249068;28;20049;-77
2023/10/12 05:15:11;;;;;;;5.63;3.95;;;16.20;99.90;;;;;;6248450;28;20689;-77
2023/10/12 05:18:17;;;;;;;8.48;3.60;;;16.20;99.90;;;;;;6239256;28;20045;-77
2023/10/12 05:21:19;;;;;;;8.85;3.60;;;16.10;99.90;;;;;;6248577;28;20092;-76
2023/10/12 05:24:22;;;;;;;6.60;3.67;;;16.10;99.90;;;;;;6247776;28;20044;-77
2023/10/12 05:27:24;;;;;;;8.30;3.97;;;16.10;99.90;;;;;;6247650;28;20045;-77
2023/10/12 05:30:27;;;;;;;6.97;4.20;;;16.10;99.90;;;;;;6247672;28;20041;-77
2023/10/12 05:33:39;;;;;;;7.07;3.35;;;16.10;99.90;;;;;;6242611;28;20046;-76
2023/10/12 05:36:42;;;;;;;5.55;3.95;;;16.10;99.90;;;;;;6245759;28;20046;-77
2023/10/12 05:39:46;;;;;;;17.50;4.57;;;16.20;99.90;;;;;;6247240;28;20129;-77
2023/10/12 05:42:50;;;;;;;11.55;4.22;;;16.20;99.90;;;;;;6247592;28;20128;-77
2023/10/12 05:45:52;;;;;;;13.95;4.20;;;16.20;99.90;;;;;;6247168;28;20076;-77
2023/10/12 05:48:58;;;;;;;5.25;3.35;;;16.30;99.90;;;;;;6247251;28;20572;-77
2023/10/12 05:52:04;;;;;;;4.43;3.17;;;16.30;99.90;;;;;;6246325;28;20076;-77
2023/10/12 05:55:19;;;;;;;4.97;3.53;;;16.40;99.90;;;;;;6246767;28;20045;-77
2023/10/12 05:58:20;;;;;;;8.82;3.75;;;16.40;99.90;;;;;;6246509;28;20052;-77
2023/10/12 06:01:32;;;;;;;6.40;3.95;;;16.50;99.90;;;;;;6246973;28;20053;-77
2023/10/12 06:04:35;;;;;;;10.50;4.32;;;16.50;99.90;;;;;;6246336;28;20451;-77
2023/10/12 06:07:36;;;;;;;9.63;4.07;;;16.60;99.90;;;;;;6246296;28;20037;-77
2023/10/12 06:10:41;;;;;;;9.65;3.33;;;16.70;99.90;;;;;;6246207;28;20187;-77
2023/10/12 06:13:44;;;;;;;7.28;3.42;;;16.70;99.90;;;;;;6246275;28;20053;-77
2023/10/12 06:16:46;;;;;;;5.70;3.17;;;16.80;99.80;;;;;;6246836;28;20056;-77
2023/10/12 06:19:54;;;;;;;5.78;2.97;;;16.80;99.80;;;;;;6246302;28;20502;-77
2023/10/12 06:22:56;;;;;;;10.25;4.60;;;16.90;99.80;;;;;;6246309;28;20395;-77
2023/10/12 06:25:57;;;;;;;7.07;3.42;;;16.90;99.80;;;;;;6245683;28;20050;-77
2023/10/12 06:28:59;;;;;;;7.22;3.80;;;16.90;99.80;;;;;;6246198;28;20053;-77
2023/10/12 06:32:02;;;;;;;5.63;3.47;;;17.00;99.70;;;;;;6245439;28;20049;-77
2023/10/12 06:35:24;;;;;;;5.05;3.30;;;17.10;99.70;;;;;;6245697;28;20041;-76
2023/10/12 06:38:38;;;;;;;6.70;4.38;;;17.20;99.60;;;;;;6245971;28;20069;-76
2023/10/12 06:44:58;;;;;;;9.70;3.55;;;17.50;99.20;;;;;;6245683;28;20120;-77
2023/10/12 06:48:21;;;;;;;11.00;3.63;;;17.70;99.00;;;;;;6219523;28;20049;-76
2023/10/12 06:51:23;;;;;;;5.80;3.72;;;17.90;98.80;;;;;;6248354;28;20401;-76
2023/10/12 06:54:32;;;;;;;8.40;3.80;;;18.10;98.40;;;;;;6224877;28;20053;-76
2023/10/12 06:57:42;;;;;;;6.25;3.55;;;18.30;98.00;;;;;;6245142;28;20045;-76
2023/10/12 07:04:00;;;;;;;5.05;3.45;;;18.50;97.40;;;;;;6230989;28;20042;-76
2023/10/12 07:07:07;;;;;;;8.48;3.47;;;18.50;97.10;;;;;;6245945;28;20045;-77
2023/10/12 07:10:23;;;;;;;4.03;2.92;;;18.60;96.90;;;;;;6244058;28;20064;-76
2023/10/12 07:13:26;;;;;;;5.55;3.25;;;18.60;96.60;;;;;;6242217;28;20037;-77
2023/10/12 07:16:31;;;;;;;9.82;3.67;;;18.70;96.30;;;;;;6245251;28;20532;-76
2023/10/12 07:19:34;;;;;;;8.52;4.03;;;18.80;96.10;;;;;;6245553;28;20053;-76
2023/10/12 07:22:38;;;;;;;8.70;3.17;;;18.90;95.80;;;;;;6240164;28;20046;-76
2023/10/12 07:25:43;;;;;;;7.07;3.53;;;19.10;95.50;;;;;;6237986;28;20171;-77
2023/10/12 07:28:49;;;;;;;4.40;2.97;;;19.20;95.20;;;;;;6247554;28;20125;-77
2023/10/12 07:31:51;;;;;;;7.65;3.63;;;19.30;94.80;;;;;;6246795;28;20124;-78
2023/10/12 07:34:54;;;;;;;7.97;3.50;;;19.30;94.40;;;;;;6245420;28;20065;-77
2023/10/12 07:37:57;;;;;;;6.75;3.22;;;19.40;94.10;;;;;;6244907;28;20507;-76
2023/10/12 07:41:00;;;;;;;7.75;3.08;;;19.50;93.80;;;;;;6231128;28;20183;-77
2023/10/12 07:44:03;;;;;;;7.80;3.78;;;19.60;93.40;;;;;;6252187;28;20046;-77
2023/10/12 07:47:13;;;;;;;14.20;3.55;;;19.80;93.10;;;;;;6250008;28;20052;-77
2023/10/12 07:50:25;;;;;;;9.52;3.40;;;19.90;92.80;;;;;;6250383;28;20052;-77
2023/10/12 07:53:29;;;;;;;6.53;2.90;;;20.00;92.40;;;;;;6247782;28;20121;-76
2023/10/12 07:56:33;;;;;;;14.25;3.58;;;20.10;92.00;;;;;;6247390;28;20037;-77
2023/10/12 07:59:38;;;;;;;6.07;3.30;;;20.30;91.70;;;;;;6250388;28;20068;-77
2023/10/12 08:06:08;;;;;;;4.30;3.67;;;20.50;90.90;;;;;;6251345;28;20481;-76
2023/10/12 08:09:39;;;;;;;12.23;4.40;;;20.60;90.60;;;;;;6250228;28;20442;-77
2023/10/12 08:12:45;;;;;;;9.85;3.30;;;20.80;90.30;;;;;;6249954;28;20050;-77
2023/10/12 08:15:55;;;;;;;12.77;3.53;;;21.00;89.80;;;;;;6246803;28;20568;-76
2023/10/12 08:22:26;;;;;;;9.50;2.92;;;21.30;88.00;;;;;;6250542;28;20065;-77
2023/10/12 08:25:38;;;;;;;11.35;3.55;;;21.50;87.30;;;;;;6251430;28;20131;-77
2023/10/12 08:28:54;;;;;;;10.63;3.65;;;21.80;85.90;;;;;;6250602;28;20045;-77
2023/10/12 08:32:04;;;;;;;5.72;3.10;;;21.90;84.90;;;;;;6250476;28;20050;-76
2023/10/12 08:35:35;;;;;;;5.97;2.97;;;21.90;83.80;;;;;;6249477;28;20048;-77
2023/10/12 08:38:33;;;;;;;6.55;3.22;;;22.00;83.40;;;;;;6249897;28;20052;-77
2023/10/12 08:41:56;;;;;;;9.75;3.10;;;22.00;82.80;;;;;;6250844;28;20088;-77
2023/10/12 08:44:59;;;;;;;6.07;3.75;;;22.00;82.20;;;;;;6239179;28;20998;-77
2023/10/12 08:48:03;;;;;;;5.90;3.03;;;22.10;81.70;;;;;;6250066;28;20049;-77
2023/10/12 08:51:09;;;;;;;7.05;4.70;;;22.30;81.40;;;;;;6250535;28;20453;-78
2023/10/12 08:54:16;;;;;;;14.60;2.63;;;22.50;80.50;;;;;;6251625;28;20037;-77
2023/10/12 08:57:34;;;;;;;8.40;3.05;;;22.80;79.70;;;;;;6252274;28;20522;-77
2023/10/12 09:00:42;;;;;;;8.02;3.22;;;23.10;78.70;;;;;;6255880;28;20045;-77
2023/10/12 09:03:49;;;;;;;8.45;3.90;;;23.20;78.10;;;;;;6248252;28;20042;-77
2023/10/12 09:06:57;;;;;;;7.78;3.60;;;23.20;77.50;;;;;;6248118;28;20080;-76
2023/10/12 09:10:03;;;;;;;;;;;23.30;77.20;;;;;;6248454;28;20494;-76
2023/10/12 09:13:05;;;;;;;4.95;2.72;;;23.60;77.30;;;;;;6248429;28;20027;-77
2023/10/12 09:16:09;;;;;;;9.35;2.85;;;23.80;75.60;;;;;;6247703;28;20303;-77
2023/10/12 09:19:24;;;;;;;10.25;3.60;;;23.90;75.20;;;;;;6248295;28;20045;-77
2023/10/12 09:22:29;;;;;;;6.75;2.50;;;24.20;74.60;;;;;;6248208;28;20048;-77
2023/10/12 09:29:07;;;;;;;7.82;4.95;;;24.60;73.00;;;;;;6245910;28;20081;-77
2023/10/12 09:32:16;;;;;;;5.43;3.45;;;24.70;72.90;;;;;;6249305;28;20052;-76
2023/10/12 09:35:19;;;;;;;5.75;3.38;;;24.80;72.50;;;;;;6248152;28;20418;-77
2023/10/12 09:38:21;;;;;;;5.82;3.67;;;25.10;72.00;;;;;;6247736;28;20072;-76
2023/10/12 09:41:27;;;;;;;15.82;5.20;;;25.60;71.10;;;;;;6248476;28;20502;-77
2023/10/12 09:44:37;;;;;;;12.00;3.78;;;26.30;70.00;;;;;;6248245;28;20048;-77
2023/10/12 09:47:50;;;;;;;5.97;2.88;;;26.90;68.70;;;;;;6247104;28;20041;-76
2023/10/12 09:50:52;;;;;;;8.25;3.42;;;27.50;67.00;;;;;;6247053;28;20046;-76
2023/10/12 09:53:58;;;;;;;7.63;4.22;;;27.80;65.90;;;;;;6246841;28;20077;-76
2023/10/12 09:57:04;;;;;;;9.05;4.03;;;27.90;64.40;;;;;;6247101;28;20053;-76
2023/10/12 10:00:27;;;;;;;7.03;3.25;;;28.10;63.90;;;;;;6246235;28;20049;-76
2023/10/12 10:03:47;;;;;;;10.80;4.90;;;28.20;63.30;;;;;;6246339;28;20171;-76
2023/10/12 10:06:53;;;;;;;7.25;3.65;;;28.10;62.90;;;;;;6246584;28;20073;-76
2023/10/12 10:09:57;;;;;;;7.47;3.33;;;27.80;62.80;;;;;;6246629;28;20050;-76
2023/10/12 10:13:00;;;;;;;6.70;4.15;;;27.60;62.90;;;;;;6246704;28;20056;-76
2023/10/12 10:16:08;;;;;;;6.20;4.00;;;27.40;63.00;;;;;;6245792;28;20041;-76
2023/10/12 10:19:14;;;;;;;;;;;27.20;62.90;;;;;;6245216;28;20057;-76
2023/10/12 10:22:16;;;;;;;4.82;3.10;;;27.00;63.90;;;;;;6230443;28;19928;-76
2023/10/12 10:25:18;;;;;;;8.43;3.65;;;26.70;63.70;;;;;;6226523;28;20047;-76
2023/10/12 10:28:23;;;;;;;5.65;3.17;;;26.60;63.90;;;;;;6240103;28;20049;-76
2023/10/12 10:31:28;;;;;;;6.93;3.30;;;26.50;63.90;;;;;;6240284;28;20048;-76
2023/10/12 10:34:34;;;;;;;11.30;4.05;;;26.50;63.70;;;;;;6239978;28;20048;-76
2023/10/12 10:37:57;;;;;;;5.53;3.53;;;26.50;63.80;;;;;;6246705;28;20068;-76
2023/10/12 10:41:18;;;;;;;5.18;3.47;;;26.40;63.60;;;;;;6240645;28;20410;-76
2023/10/12 10:44:21;;;;;;;8.02;3.00;;;26.40;64.10;;;;;;6223936;28;20049;-76
2023/10/12 10:47:27;;;;;;;7.47;3.47;;;26.30;64.00;;;;;;6246424;28;20046;-77
2023/10/12 10:50:33;;;;;;;6.03;3.63;;;26.30;64.70;;;;;;6239778;28;20053;-77
2023/10/12 10:53:37;;;;;;;5.28;2.97;;;26.20;64.20;;;;;;6242158;28;20599;-77
2023/10/12 10:56:47;;;;;;;10.60;3.78;;;26.10;64.30;;;;;;6244631;28;20053;-76
2023/10/12 10:59:49;;;;;;;6.13;2.97;;;26.00;64.50;;;;;;6261755;23;20054;-78
2023/10/12 11:02:52;;;;;;;5.70;3.40;;;25.90;64.60;;;;;;6265370;28;20295;-77
2023/10/12 11:05:54;;;;;;;10.57;3.60;;;25.80;65.10;;;;;;6255594;28;20056;-79
2023/10/12 11:09:05;;;;;;;8.27;4.28;;;25.70;65.30;;;;;;6271361;28;20049;-79
2023/10/12 11:12:08;;;;;;;6.60;4.25;;;25.60;65.60;;;;;;6268151;28;20122;-82
2023/10/12 11:15:11;;;;;;;9.55;4.22;;;25.50;65.90;;;;;;6247922;28;20045;-81
2023/10/12 11:18:17;;;;;;;5.75;3.33;;;25.40;66.10;;;;;;6256484;28;20060;-80
2023/10/12 11:21:19;;;;;;;7.28;3.25;;;25.30;66.20;;;;;;6259105;28;20416;-79
2023/10/12 11:24:23;;;;;;;8.15;3.58;;;25.30;66.20;;;;;;6263683;28;20045;-79
2023/10/12 11:27:32;;;;;;;8.55;3.58;;;25.10;66.20;;;;;;6258829;28;20042;-81
2023/10/12 11:30:36;;;;;;;10.30;3.03;;;24.90;66.60;;;;;;6262249;28;20055;-82
2023/10/12 11:33:48;;;;;;;5.50;3.28;;;24.70;66.60;;;;;;6262093;28;20265;-79
2023/10/12 11:36:57;;;;;;;4.82;3.47;;;24.70;67.00;;;;;;6256041;28;20148;-79
2023/10/12 11:39:59;;;;;;;7.40;3.33;;;24.70;66.70;;;;;;6263488;28;20500;-77
2023/10/12 11:43:01;;;;;;;5.40;3.58;;;24.60;66.60;;;;;;6250880;28;20049;-79
2023/10/12 11:46:03;;;;;;;7.82;3.90;;;24.60;66.40;;;;;;6258609;28;20443;-78
2023/10/12 11:49:10;;;;;;;6.65;4.68;;;24.70;66.50;;;;;;6258387;28;20049;-79
2023/10/12 11:52:15;;;;;;;;;;;24.70;66.50;;;;;;6250890;28;20421;-79
2023/10/12 11:55:27;;;;;;;10.80;3.78;;;24.80;66.50;;;;;;6259115;28;19998;-80
2023/10/12 11:58:32;;;;;;;8.15;3.90;;;24.80;66.50;;;;;;6262334;28;20052;-78
2023/10/12 12:01:37;;;;;;;7.63;4.30;;;24.80;66.30;;;;;;6269912;28;20366;-80
2023/10/12 12:04:40;;;;;;;5.15;3.40;;;24.80;66.20;;;;;;6254977;28;20045;-82
2023/10/12 12:07:43;;;;;;;6.72;3.58;;;24.70;66.20;;;;;;6262570;28;20124;-78
2023/10/12 12:10:46;;;;;;;7.63;4.13;;;24.60;66.20;;;;;;6262445;28;20045;-79
2023/10/12 12:13:51;;;;;;;11.60;3.42;;;24.30;66.40;;;;;;6254487;28;20052;-78
2023/10/12 12:16:54;;;;;;;4.07;3.58;;;24.30;66.90;;;;;;6273346;28;20071;-78
2023/10/12 12:19:59;;;;;;;7.38;3.42;;;24.20;66.80;;;;;;6252033;28;20499;-81
2023/10/12 12:23:04;;;;;;;7.30;3.85;;;24.10;67.10;;;;;;6265611;28;20057;-80
2023/10/12 12:26:07;;;;;;;5.57;3.83;;;24.00;67.30;;;;;;6248799;28;20061;-79
2023/10/12 12:29:11;;;;;;;6.85;3.80;;;24.00;67.50;;;;;;6260605;28;20045;-80
2023/10/12 12:32:14;;;;;;;8.43;3.67;;;23.90;67.40;;;;;;6261426;28;20546;-80
2023/10/12 12:35:19;;;;;;;4.80;3.83;;;23.90;67.60;;;;;;6253839;28;20451;-79
2023/10/12 12:38:33;;;;;;;10.20;4.03;;;23.80;67.40;;;;;;6256420;28;20058;-79
2023/10/12 12:41:36;;;;;;;5.07;3.40;;;23.70;67.60;;;;;;6279165;28;20064;-78
2023/10/12 12:44:45;;;;;;;8.07;3.65;;;23.70;67.80;;;;;;6272521;28;20041;-78
2023/10/12 12:47:47;;;;;;;9.80;4.93;;;23.70;67.70;;;;;;6278535;28;20053;-80
2023/10/12 12:50:54;;;;;;;5.75;3.97;;;23.70;67.70;;;;;;6290340;28;20045;-80
2023/10/12 12:53:56;;;;;;;9.47;3.37;;;23.70;67.80;;;;;;6290951;28;20056;-79
2023/10/12 12:57:04;;;;;;;5.03;4.07;;;23.70;68.00;;;;;;6290196;28;20061;-78
2023/10/12 13:00:08;;;;;;;6.03;3.75;;;23.70;68.00;;;;;;6290931;28;20045;-80
2023/10/12 13:03:11;;;;;;;9.25;3.63;;;23.70;68.00;;;;;;6291107;28;20121;-78
2023/10/12 13:06:16;;;;;;;7.70;4.28;;;23.80;67.90;;;;;;6293618;28;20077;-79
2023/10/12 13:09:29;;;;;;;8.05;3.97;;;23.80;67.60;;;;;;6271372;28;20045;-78
2023/10/12 13:12:31;;;;;;;8.55;3.40;;;23.80;67.70;;;;;;6295931;28;20140;-78
2023/10/12 13:15:41;;;;;;;7.75;4.40;;;23.80;67.60;;;;;;6287029;28;20113;-77
2023/10/12 13:18:46;;;;;;;5.35;3.40;;;23.80;67.60;;;;;;6277982;28;20143;-77
2023/10/12 13:21:49;;;;;;;5.88;3.53;;;23.90;67.60;;;;;;6263501;28;20065;-78
2023/10/12 13:24:56;;;;;;;5.70;3.67;;;23.90;67.60;;;;;;6254426;28;20129;-80
2023/10/12 13:28:00;;;;;;;6.77;3.60;;;24.00;67.70;;;;;;6253136;28;20521;-79
2023/10/12 13:31:05;;;;;;;8.00;3.80;;;24.10;67.70;;;;;;6251712;28;20292;-78
2023/10/12 13:34:10;;;;;;;5.15;3.38;;;24.20;67.60;;;;;;6267763;28;20203;-81
2023/10/12 13:37:14;;;;;;;10.68;3.92;;;24.20;67.40;;;;;;6261064;28;20072;-77
2023/10/12 13:40:16;;;;;;;6.88;3.70;;;24.30;67.30;;;;;;6260026;28;20060;-76
2023/10/12 13:43:21;;;;;;;6.97;3.50;;;24.40;67.10;;;;;;6253840;28;20041;-83
2023/10/12 13:46:23;;;;;;;4.35;2.88;;;24.50;66.90;;;;;;6259559;28;20053;-80
2023/10/12 13:49:30;;;;;;;9.00;3.72;;;24.60;66.60;;;;;;6275675;28;20052;-80
2023/10/12 13:52:33;;;;;;;10.85;3.33;;;24.80;66.40;;;;;;6248915;28;20046;-78
2023/10/12 13:55:37;;;;;;;9.05;3.47;;;24.80;66.10;;;;;;6258948;28;20045;-80
2023/10/12 13:58:44;;;;;;;10.43;4.35;;;24.90;66.00;;;;;;6254150;28;20230;-81
2023/10/12 14:01:46;;;;;;;9.00;3.55;;;24.90;66.00;;;;;;6263533;28;20049;-81
2023/10/12 14:04:49;;;;;;;7.85;3.67;;;24.90;66.00;;;;;;6273268;28;20060;-80
2023/10/12 14:07:54;;;;;;;6.35;3.38;;;24.80;66.10;;;;;;6260767;28;20502;-79
2023/10/12 14:11:03;;;;;;;9.63;3.55;;;24.80;66.10;;;;;;6271262;28;20083;-78
2023/10/12 14:14:09;;;;;;;5.78;3.75;;;24.70;66.90;;;;;;6279348;28;20047;-79
2023/10/12 14:17:11;;;;;;;4.28;3.58;;;24.70;66.20;;;;;;6275324;28;20557;-80
2023/10/12 14:20:14;;;;;;;10.98;3.60;;;24.60;66.20;;;;;;6257710;28;20620;-78
2023/10/12 14:23:18;;;;;;;6.10;3.78;;;24.50;66.40;;;;;;6263313;28;20096;-79
2023/10/12 14:26:22;;;;;;;9.50;3.80;;;24.50;66.50;;;;;;6266235;28;20068;-77
2023/10/12 14:29:25;;;;;;;15.88;6.07;;;24.50;66.20;;;;;;6240185;28;20056;-78
2023/10/12 14:32:27;;;;;;;4.82;3.22;;;24.40;65.80;;;;;;6248631;28;20045;-79
2023/10/12 14:35:32;;;;;;;6.43;4.20;;;24.40;65.90;;;;;;6249282;28;20045;-79
2023/10/12 14:38:36;;;;;;;8.93;3.00;;;24.30;66.10;;;;;;6257654;28;20387;-78
2023/10/12 14:41:38;;;;;;;6.80;3.28;;;24.30;66.30;;;;;;6269931;28;20450;-78
2023/10/12 14:44:41;;;;;;;5.18;3.20;;;24.30;66.30;;;;;;6258127;28;20049;-79
2023/10/12 14:47:44;;;;;;;7.15;3.50;;;24.20;66.40;;;;;;6269595;28;20049;-79
2023/10/12 14:50:49;;;;;;;7.07;3.30;;;24.10;66.70;;;;;;6253619;28;20524;-79
2023/10/12 14:53:52;;;;;;;6.07;2.67;;;24.10;66.90;;;;;;6253741;28;20439;-78
2023/10/12 14:56:54;;;;;;;5.68;3.60;;;24.00;66.90;;;;;;6262694;28;20125;-79
2023/10/12 14:59:56;;;;;;;12.70;3.70;;;24.00;66.90;;;;;;6246071;28;20053;-78
2023/10/12 15:02:58;;;;;;;7.82;4.53;;;23.80;67.10;;;;;;6262205;28;20049;-77
2023/10/12 15:06:02;;;;;;;7.07;3.63;;;23.80;67.40;;;;;;6259370;28;20041;-78
2023/10/12 15:09:10;;;;;;;13.18;4.05;;;23.70;67.50;;;;;;6263624;28;20053;-78
2023/10/12 15:12:13;;;;;;;4.97;3.22;;;23.70;67.70;;;;;;6254463;28;20045;-77
2023/10/12 15:15:18;;;;;;;6.03;3.72;;;23.60;67.70;;;;;;6256640;28;20551;-79
2023/10/12 15:18:23;;;;;;;7.18;4.15;;;23.60;68.00;;;;;;6261848;28;20040;-77
2023/10/12 15:21:25;;;;;;;9.40;4.95;;;23.50;68.20;;;;;;6261117;28;20055;-77
2023/10/12 15:24:28;;;;;;;13.77;5.60;;;23.50;68.40;;;;;;6255243;28;20049;-78
2023/10/12 15:27:30;;;;;;;10.50;3.85;;;23.40;68.60;;;;;;6261864;28;20049;-78
2023/10/12 15:30:33;;;;;;;5.63;3.53;;;23.40;68.80;;;;;;6254453;28;20068;-79
2023/10/12 15:33:37;;;;;;;7.20;3.53;;;23.30;69.00;;;;;;6262702;28;20056;-78
2023/10/12 15:36:39;;;;;;;8.13;3.55;;;23.20;69.10;;;;;;6245386;28;20188;-79
2023/10/12 15:39:44;;;;;;;15.95;4.25;;;23.10;69.30;;;;;;6255826;28;20064;-77
2023/10/12 15:42:47;;;;;;;6.22;3.20;;;23.10;69.40;;;;;;6255088;28;20041;-81
2023/10/12 15:45:48;;;;;;;7.10;3.40;;;23.00;69.60;;;;;;6259023;28;20045;-80
2023/10/12 15:48:51;;;;;;;8.48;3.72;;;23.00;69.80;;;;;;6268066;28;20060;-80
2023/10/12 15:51:52;;;;;;;11.43;3.72;;;22.90;69.80;;;;;;6265299;28;20512;-81
2023/10/12 15:54:57;;;;;;;7.55;3.50;;;22.90;70.10;;;;;;6258474;28;20046;-78
2023/10/12 15:58:00;;;;;;;10.30;4.35;;;22.80;70.40;;;;;;6247192;28;20050;-79
2023/10/12 16:01:03;;;;;;;7.97;4.15;;;22.70;70.70;;;;;;6259659;28;20131;-79
2023/10/12 16:04:08;;;;;;;9.88;4.28;;;22.70;71.10;;;;;;6271891;28;20056;-81
2023/10/12 16:07:16;;;;;;;5.70;4.30;;;22.60;71.40;;;;;;6257476;28;20071;-78
2023/10/12 16:10:20;;;;;;;8.70;3.70;;;22.60;72.00;;;;;;6251605;28;20048;-77
2023/10/12 16:13:22;;;;;;;11.00;5.22;;;22.50;72.30;;;;;;6267646;28;20056;-79
2023/10/12 16:16:24;;;;;;;7.78;3.28;;;22.40;72.60;;;;;;6268892;28;20152;-81
2023/10/12 16:19:26;;;;;;;9.52;3.70;;;22.30;73.00;;;;;;6251465;28;20550;-79
2023/10/12 16:22:29;;;;;;;8.52;3.38;;;22.20;73.50;;;;;;6254540;28;20037;-78
2023/10/12 16:25:32;;;;;;;7.15;3.25;;;22.10;74.00;;;;;;6256398;28;20514;-80
2023/10/12 16:28:34;;;;;;;8.90;3.65;;;22.00;74.40;;;;;;6268052;28;20114;-81
2023/10/12 16:31:35;;;;;;;11.50;3.90;;;21.90;74.90;;;;;;6280202;28;20056;-80